Time;durP1;ratioP1;P1;durP2;ratioP2;P2;SDS_P1;SDS_P2;PMS_P1;PMS_P2;Temp;Humidity;BMP_temperature;BMP_pressure;BME280_temperature;BME280_humidity;BME280_pressure;Samples;Min_cycle;Max_cycle;Signal;HPM_P1;HPM_P2
2023/03/21 00:01:19;;;;;;;70.60;10.90;;;10.40;98.90;;;;;;5023074;28;20163;-84
2023/03/21 00:03:46;;;;;;;70.87;10.27;;;10.30;99.40;;;;;;5023826;28;20970;-84
2023/03/21 00:06:12;;;;;;;85.00;11.35;;;10.40;99.90;;;;;;5018139;28;20193;-84
2023/03/21 00:08:38;;;;;;;79.83;11.20;;;10.30;99.90;;;;;;5022428;28;20197;-84
2023/03/21 00:11:07;;;;;;;77.45;12.15;;;10.30;99.90;;;;;;5016715;28;20912;-84
2023/03/21 00:13:37;;;;;;;74.07;12.60;;;10.30;99.90;;;;;;5023882;28;20232;-84
2023/03/21 00:16:21;;;;;;;73.45;13.57;;;10.30;99.90;;;;;;5016088;28;20177;-84
2023/03/21 00:18:51;;;;;;;73.78;12.82;;;10.20;99.90;;;;;;5022782;28;20165;-84
2023/03/21 00:21:27;;;;;;;72.10;12.23;;;10.20;99.90;;;;;;5024310;28;20173;-84
2023/03/21 00:23:53;;;;;;;73.90;11.10;;;10.30;99.90;;;;;;5024155;28;20249;-84
2023/03/21 00:26:18;;;;;;;73.22;12.52;;;10.30;99.90;;;;;;5023644;28;20213;-85
2023/03/21 00:28:44;;;;;;;74.57;13.27;;;10.30;99.90;;;;;;5023543;28;20669;-84
2023/03/21 00:31:10;;;;;;;69.60;13.53;;;10.20;99.90;;;;;;5017145;28;20166;-84
2023/03/21 00:33:37;;;;;;;71.13;13.17;;;10.20;99.90;;;;;;5021670;28;20657;-84
2023/03/21 00:36:04;;;;;;;71.05;11.60;;;10.20;99.90;;;;;;5022606;28;20408;-84
2023/03/21 00:38:30;;;;;;;71.97;13.77;;;10.20;99.90;;;;;;5023325;28;20166;-84
2023/03/21 00:40:55;;;;;;;73.93;12.07;;;10.20;99.90;;;;;;5023084;28;20506;-84
2023/03/21 00:43:28;;;;;;;76.03;10.90;;;10.30;99.90;;;;;;5017961;28;20197;-84
2023/03/21 00:45:57;;;;;;;70.47;11.88;;;10.30;99.90;;;;;;5022368;28;20475;-84
2023/03/21 00:48:23;;;;;;;77.47;12.93;;;10.30;99.90;;;;;;5023785;28;20217;-84
2023/03/21 00:50:51;;;;;;;78.68;14.23;;;10.20;99.90;;;;;;5021067;28;20248;-84
2023/03/21 00:53:17;;;;;;;71.72;12.73;;;10.20;99.90;;;;;;5017710;28;20189;-84
2023/03/21 00:55:43;;;;;;;73.53;13.00;;;10.20;99.90;;;;;;5023333;28;20541;-85
2023/03/21 00:58:08;;;;;;;75.37;13.10;;;10.20;99.90;;;;;;5023119;28;20397;-84
2023/03/21 01:00:36;;;;;;;82.77;14.90;;;10.10;99.90;;;;;;5022288;28;20411;-84
2023/03/21 01:03:06;;;;;;;71.97;13.15;;;10.10;99.90;;;;;;5022241;28;20248;-84
2023/03/21 01:08:20;;;;;;;78.38;12.80;;;10.10;99.90;;;;;;5021662;28;20291;-84
2023/03/21 01:10:47;;;;;;;73.70;13.60;;;10.20;99.90;;;;;;5021130;28;20162;-84
2023/03/21 01:13:18;;;;;;;77.57;14.07;;;10.10;99.90;;;;;;5021912;28;20421;-84
2023/03/21 01:15:50;;;;;;;79.40;13.60;;;10.10;99.90;;;;;;5019686;28;20215;-85
2023/03/21 01:18:18;;;;;;;72.63;12.75;;;10.20;99.90;;;;;;5022274;28;20518;-84
2023/03/21 01:20:44;;;;;;;72.82;13.68;;;10.10;99.90;;;;;;5022336;28;20165;-85
2023/03/21 01:23:12;;;;;;;75.40;15.63;;;10.20;99.90;;;;;;5022991;28;20186;-84
2023/03/21 01:25:38;;;;;;;74.90;13.32;;;10.20;99.90;;;;;;5022886;28;20177;-84
2023/03/21 01:28:05;;;;;;;75.83;12.93;;;10.30;99.90;;;;;;5022263;28;20194;-84
2023/03/21 01:30:31;;;;;;;71.97;13.45;;;10.30;99.90;;;;;;5022837;28;20445;-84
2023/03/21 01:32:57;;;;;;;75.03;13.95;;;10.20;99.90;;;;;;5014058;28;20186;-85
2023/03/21 01:35:23;;;;;;;78.57;15.30;;;10.20;99.90;;;;;;5020964;28;20170;-84
2023/03/21 01:37:49;;;;;;;75.85;13.98;;;10.20;99.90;;;;;;5021013;28;20166;-85
2023/03/21 01:40:22;;;;;;;76.40;15.33;;;10.10;99.90;;;;;;5016327;28;20173;-84
2023/03/21 01:42:48;;;;;;;73.78;13.35;;;10.10;99.90;;;;;;5020717;28;20196;-84
2023/03/21 01:45:51;;;;;;;73.80;11.93;;;10.10;99.90;;;;;;5036938;28;20233;-85
2023/03/21 01:48:19;;;;;;;75.43;14.00;;;10.20;99.90;;;;;;5020406;28;20539;-84
2023/03/21 01:50:46;;;;;;;76.88;14.20;;;10.10;99.90;;;;;;5021692;28;20245;-84
2023/03/21 01:53:12;;;;;;;76.90;13.77;;;10.10;99.90;;;;;;5021551;28;20683;-85
2023/03/21 01:55:39;;;;;;;75.15;14.93;;;10.10;99.90;;;;;;5018494;28;20194;-85
2023/03/21 01:58:08;;;;;;;78.03;13.07;;;10.20;99.90;;;;;;5020715;28;20181;-84
2023/03/21 02:00:35;;;;;;;74.63;14.27;;;10.20;99.90;;;;;;5021437;28;20166;-85
2023/03/21 02:03:07;;;;;;;74.32;13.05;;;10.20;99.90;;;;;;5014343;28;20239;-84
2023/03/21 02:05:49;;;;;;;81.28;14.30;;;10.10;99.90;;;;;;5022411;28;20536;-85
2023/03/21 02:08:15;;;;;;;73.20;13.30;;;10.10;99.90;;;;;;5021993;28;20182;-84
2023/03/21 02:10:44;;;;;;;78.80;13.52;;;10.10;99.90;;;;;;5020549;28;20177;-84
2023/03/21 02:13:10;;;;;;;72.43;12.18;;;10.10;99.90;;;;;;5021403;28;20182;-84
2023/03/21 02:15:46;;;;;;;78.53;14.23;;;10.10;99.90;;;;;;5018917;28;20254;-85
2023/03/21 02:18:46;;;;;;;72.60;13.45;;;10.10;99.90;;;;;;5015299;28;20401;-85
2023/03/21 02:21:15;;;;;;;76.13;13.00;;;10.10;99.90;;;;;;5020501;28;20262;-85
2023/03/21 02:24:06;;;;;;;73.95;13.35;;;10.10;99.90;;;;;;5021155;28;20194;-85
2023/03/21 02:27:03;;;;;;;74.63;13.07;;;10.10;99.90;;;;;;5020818;28;20170;-85
2023/03/21 02:29:57;;;;;;;73.82;13.27;;;10.10;99.90;;;;;;5021584;28;20277;-85
2023/03/21 02:32:51;;;;;;;77.13;12.18;;;10.00;99.90;;;;;;5020895;28;20192;-85
2023/03/21 02:35:48;;;;;;;73.93;11.18;;;10.00;99.90;;;;;;5021210;28;20522;-85
2023/03/21 02:38:24;;;;;;;78.72;12.88;;;10.00;99.90;;;;;;5026043;28;20178;-84
2023/03/21 02:41:02;;;;;;;79.45;13.63;;;10.00;99.90;;;;;;5020152;28;20160;-85
2023/03/21 02:43:38;;;;;;;78.32;13.00;;;10.00;99.90;;;;;;5021744;28;20593;-84
2023/03/21 02:46:19;;;;;;;72.72;11.63;;;10.00;99.90;;;;;;5021816;28;20601;-85
2023/03/21 02:48:57;;;;;;;72.95;11.85;;;10.00;99.90;;;;;;5020182;28;20200;-85
2023/03/21 02:51:26;;;;;;;76.22;13.18;;;10.00;99.90;;;;;;5016616;28;20158;-85
2023/03/21 02:53:57;;;;;;;76.32;13.68;;;10.00;99.90;;;;;;5028888;28;20560;-85
2023/03/21 02:56:24;;;;;;;73.10;13.75;;;10.00;99.90;;;;;;5020096;28;20169;-85
2023/03/21 02:58:52;;;;;;;76.90;13.40;;;10.00;99.90;;;;;;5021433;28;20166;-85
2023/03/21 03:01:17;;;;;;;76.85;12.00;;;10.10;99.90;;;;;;5021307;28;20176;-85
2023/03/21 03:03:43;;;;;;;78.13;12.97;;;10.00;99.90;;;;;;5020251;28;20186;-85
2023/03/21 03:06:17;;;;;;;73.77;12.07;;;10.00;99.90;;;;;;5014129;28;20174;-84
2023/03/21 03:09:04;;;;;;;71.20;12.00;;;10.00;99.90;;;;;;5018942;28;20216;-84
2023/03/21 03:11:45;;;;;;;79.22;12.15;;;10.10;99.90;;;;;;5019624;28;20150;-85
2023/03/21 03:14:34;;;;;;;75.30;12.88;;;10.00;99.90;;;;;;5020645;28;20190;-85
2023/03/21 03:17:22;;;;;;;72.05;13.70;;;10.00;99.90;;;;;;5012828;28;20154;-84
2023/03/21 03:19:47;;;;;;;74.28;11.98;;;10.00;99.90;;;;;;5018812;28;20581;-84
2023/03/21 03:22:18;;;;;;;73.30;13.33;;;10.00;99.90;;;;;;5020605;28;20213;-85
2023/03/21 03:25:05;;;;;;;74.10;13.20;;;10.00;99.90;;;;;;5035205;28;20158;-84
2023/03/21 03:27:40;;;;;;;78.95;12.85;;;9.90;99.90;;;;;;5033318;28;20180;-85
2023/03/21 03:30:08;;;;;;;71.75;11.65;;;9.90;99.90;;;;;;5020246;28;20548;-84
2023/03/21 03:32:55;;;;;;;77.40;14.95;;;9.90;99.90;;;;;;5033463;28;20182;-84
2023/03/21 03:35:24;;;;;;;71.95;11.07;;;9.80;99.90;;;;;;5020616;28;20158;-84
2023/03/21 03:37:57;;;;;;;86.00;12.98;;;9.80;99.90;;;;;;5011960;28;20169;-84
2023/03/21 03:40:50;;;;;;;77.13;12.50;;;9.80;99.90;;;;;;5035805;28;20168;-84
2023/03/21 03:43:39;;;;;;;75.47;13.18;;;9.80;99.90;;;;;;5019728;28;20186;-84
2023/03/21 03:46:13;;;;;;;74.90;12.68;;;9.80;99.90;;;;;;5013966;28;20177;-84
2023/03/21 03:48:50;;;;;;;72.88;12.68;;;9.70;99.90;;;;;;5020612;28;20197;-84
2023/03/21 03:51:32;;;;;;;77.07;14.02;;;9.80;99.90;;;;;;5031186;28;20625;-84
2023/03/21 03:54:03;;;;;;;75.70;13.43;;;9.70;99.90;;;;;;5018185;28;20190;-85
2023/03/21 03:56:29;;;;;;;83.13;13.43;;;9.70;99.90;;;;;;5017960;28;20155;-85
2023/03/21 03:58:56;;;;;;;76.80;15.68;;;9.70;99.90;;;;;;5012446;28;20245;-85
2023/03/21 04:01:22;;;;;;;71.70;12.45;;;9.70;99.90;;;;;;5018943;28;20169;-84
2023/03/21 04:03:48;;;;;;;72.33;14.27;;;9.70;99.90;;;;;;5020666;28;20197;-84
2023/03/21 04:06:15;;;;;;;78.35;14.82;;;9.70;99.90;;;;;;5014788;28;20174;-85
2023/03/21 04:08:42;;;;;;;71.85;14.15;;;9.70;99.90;;;;;;5020666;28;20190;-85
2023/03/21 04:11:09;;;;;;;78.05;14.30;;;9.70;99.90;;;;;;5020679;28;20170;-84
2023/03/21 04:13:34;;;;;;;73.45;15.15;;;9.70;99.90;;;;;;5018831;28;20182;-84
2023/03/21 04:16:00;;;;;;;73.60;14.30;;;9.70;99.90;;;;;;5012793;28;20656;-84
2023/03/21 04:18:26;;;;;;;78.43;15.90;;;9.70;99.90;;;;;;5020353;28;20193;-84
2023/03/21 04:20:52;;;;;;;75.15;12.13;;;9.70;99.90;;;;;;5011953;28;20177;-84
2023/03/21 04:23:19;;;;;;;78.20;15.07;;;9.70;99.90;;;;;;5019107;28;20190;-84
2023/03/21 04:25:45;;;;;;;75.78;14.55;;;9.80;99.90;;;;;;5020542;28;20174;-87
2023/03/21 04:28:11;;;;;;;77.25;13.63;;;9.70;99.90;;;;;;5019366;28;20197;-85
2023/03/21 04:30:38;;;;;;;76.45;12.77;;;9.80;99.90;;;;;;5018963;28;20154;-85
2023/03/21 04:33:04;;;;;;;75.68;14.55;;;9.70;99.90;;;;;;5019119;28;20236;-85
2023/03/21 04:35:30;;;;;;;74.15;15.02;;;9.80;99.90;;;;;;5020811;28;20158;-85
2023/03/21 04:37:55;;;;;;;75.00;15.33;;;9.80;99.90;;;;;;5020710;28;20178;-85
2023/03/21 04:40:23;;;;;;;79.60;14.60;;;9.80;99.90;;;;;;5022396;28;20404;-85
2023/03/21 04:42:49;;;;;;;79.72;16.33;;;9.80;99.90;;;;;;5014995;28;20205;-85
2023/03/21 04:45:15;;;;;;;76.60;14.47;;;9.80;99.90;;;;;;5023653;28;20162;-85
2023/03/21 04:47:41;;;;;;;71.93;12.68;;;9.90;99.90;;;;;;5023695;28;20272;-85
2023/03/21 04:50:09;;;;;;;81.67;14.60;;;9.80;99.90;;;;;;5023108;28;20213;-85
2023/03/21 04:52:35;;;;;;;75.57;13.98;;;9.90;99.90;;;;;;5020488;28;20185;-85
2023/03/21 04:55:01;;;;;;;73.50;15.13;;;9.90;99.90;;;;;;5023862;28;20208;-85
2023/03/21 04:57:27;;;;;;;75.07;14.93;;;9.80;99.90;;;;;;5023791;28;20169;-85
2023/03/21 04:59:52;;;;;;;73.90;13.63;;;9.90;99.90;;;;;;5023838;28;20397;-85
2023/03/21 05:02:18;;;;;;;80.30;13.90;;;9.90;99.90;;;;;;5023125;28;20425;-85
2023/03/21 05:04:44;;;;;;;75.20;13.50;;;9.80;99.90;;;;;;5021304;28;20178;-85
2023/03/21 05:07:09;;;;;;;74.20;16.00;;;9.80;99.90;;;;;;5015889;28;20178;-85
2023/03/21 05:09:35;;;;;;;76.43;15.90;;;9.80;99.90;;;;;;5021877;28;20189;-85
2023/03/21 05:12:01;;;;;;;80.80;15.23;;;9.80;99.90;;;;;;5021592;28;20455;-85
2023/03/21 05:14:27;;;;;;;77.15;15.85;;;9.80;99.90;;;;;;5019125;28;20412;-85
2023/03/21 05:16:55;;;;;;;72.77;14.67;;;9.80;99.90;;;;;;5021800;28;20158;-85
2023/03/21 05:19:33;;;;;;;72.50;18.67;;;9.80;99.90;;;;;;5017976;28;20176;-85
2023/03/21 05:22:03;;;;;;;77.70;18.05;;;9.70;99.90;;;;;;5021004;28;20257;-85
2023/03/21 05:24:30;;;;;;;72.45;15.50;;;9.80;99.90;;;;;;5021616;28;20193;-85
2023/03/21 05:27:00;;;;;;;76.70;16.83;;;9.90;99.90;;;;;;5015001;28;20209;-85
2023/03/21 05:29:29;;;;;;;73.68;13.10;;;9.90;99.90;;;;;;5021936;28;20217;-85
2023/03/21 05:31:55;;;;;;;73.00;14.15;;;9.90;99.90;;;;;;5022785;28;20166;-85
2023/03/21 05:34:21;;;;;;;74.88;15.45;;;9.90;99.90;;;;;;5017970;28;20638;-85
2023/03/21 05:36:47;;;;;;;73.65;16.02;;;9.80;99.90;;;;;;5021566;28;20169;-85
2023/03/21 05:39:13;;;;;;;74.10;15.83;;;9.90;99.90;;;;;;5022688;28;20534;-85
2023/03/21 05:41:38;;;;;;;81.63;15.90;;;9.90;99.90;;;;;;5022791;28;20172;-85
2023/03/21 05:44:04;;;;;;;72.77;16.60;;;9.80;99.90;;;;;;5022603;28;20178;-85
2023/03/21 05:46:30;;;;;;;73.77;14.83;;;9.80;99.90;;;;;;5102376;22;20223;-86
2023/03/21 05:48:56;;;;;;;77.78;15.75;;;9.90;99.90;;;;;;5039794;28;20491;-87
2023/03/21 05:51:24;;;;;;;79.23;15.33;;;9.90;99.90;;;;;;5049779;28;20272;-86
2023/03/21 05:53:53;;;;;;;74.97;14.95;;;9.90;99.90;;;;;;5039571;28;20181;-86
2023/03/21 05:56:21;;;;;;;76.97;13.93;;;9.90;99.90;;;;;;5034692;28;20584;-86
2023/03/21 05:58:47;;;;;;;78.03;14.57;;;9.90;99.90;;;;;;5039586;28;20211;-86
2023/03/21 06:01:25;;;;;;;73.13;14.20;;;10.00;99.90;;;;;;5033575;28;20161;-87
2023/03/21 06:03:51;;;;;;;69.85;13.00;;;10.00;99.90;;;;;;5039485;28;20243;-87
2023/03/21 06:06:23;;;;;;;72.27;14.87;;;10.00;99.90;;;;;;5039408;28;20169;-86
2023/03/21 06:08:49;;;;;;;75.30;14.35;;;10.00;99.90;;;;;;5039794;28;20530;-86
2023/03/21 06:11:29;;;;;;;77.27;12.80;;;10.00;99.90;;;;;;5039857;28;20173;-86
2023/03/21 06:13:58;;;;;;;77.32;14.95;;;10.10;99.90;;;;;;5039583;28;20418;-86
2023/03/21 06:16:29;;;;;;;74.30;13.30;;;10.10;99.90;;;;;;5021186;28;20582;-86
2023/03/21 06:19:01;;;;;;;79.10;12.10;;;10.10;99.90;;;;;;5030484;28;20185;-87
2023/03/21 06:21:41;;;;;;;71.85;14.25;;;10.10;99.90;;;;;;5037655;28;20237;-86
2023/03/21 06:24:13;;;;;;;80.20;14.88;;;10.10;99.90;;;;;;5033275;28;20220;-86
2023/03/21 06:26:41;;;;;;;75.70;14.43;;;10.10;99.90;;;;;;5027306;28;20234;-87
2023/03/21 06:29:07;;;;;;;75.82;12.90;;;10.10;99.90;;;;;;5032991;28;20565;-86
2023/03/21 06:31:32;;;;;;;73.10;13.23;;;10.20;99.90;;;;;;5039437;28;20161;-87
2023/03/21 06:33:58;;;;;;;75.10;11.97;;;10.20;99.90;;;;;;5039409;28;20185;-85
2023/03/21 06:36:24;;;;;;;73.60;13.83;;;10.20;99.90;;;;;;5040735;28;20165;-87
2023/03/21 06:38:53;;;;;;;71.07;12.10;;;10.30;99.90;;;;;;5032984;28;20573;-86
2023/03/21 06:41:21;;;;;;;72.03;11.48;;;10.30;99.90;;;;;;5040975;28;20176;-86
2023/03/21 06:43:47;;;;;;;74.20;13.57;;;10.30;99.90;;;;;;5041434;28;20192;-87
2023/03/21 06:46:13;;;;;;;74.23;12.77;;;10.30;99.90;;;;;;5041690;28;20181;-86
2023/03/21 06:48:43;;;;;;;76.57;14.07;;;10.40;99.90;;;;;;5041323;28;20193;-85
2023/03/21 06:51:13;;;;;;;74.30;14.30;;;10.40;99.90;;;;;;5035203;28;20165;-86
2023/03/21 06:53:40;;;;;;;75.97;15.52;;;10.40;99.90;;;;;;5041627;28;20212;-85
2023/03/21 06:56:08;;;;;;;79.72;14.23;;;10.40;99.90;;;;;;5024749;28;20231;-85
2023/03/21 06:58:34;;;;;;;74.93;13.63;;;10.40;99.90;;;;;;5040440;28;20173;-86
2023/03/21 07:01:00;;;;;;;77.45;14.10;;;10.40;99.90;;;;;;5042806;28;20196;-85
2023/03/21 07:03:26;;;;;;;72.47;13.23;;;10.50;99.90;;;;;;5038638;28;20193;-86
2023/03/21 07:05:52;;;;;;;79.67;17.30;;;10.60;99.90;;;;;;5041158;28;20498;-85
2023/03/21 07:08:18;;;;;;;78.90;17.70;;;10.50;99.90;;;;;;5041615;28;20266;-85
2023/03/21 07:10:45;;;;;;;73.38;18.30;;;10.50;99.90;;;;;;5042859;28;20168;-86
2023/03/21 07:13:11;;;;;;;73.60;18.23;;;10.50;99.90;;;;;;5036561;28;20189;-85
2023/03/21 07:15:37;;;;;;;85.00;18.65;;;10.60;99.90;;;;;;5039061;28;20165;-85
2023/03/21 07:18:05;;;;;;;73.38;16.58;;;10.50;99.90;;;;;;5034778;28;20184;-85
2023/03/21 07:20:31;;;;;;;77.40;16.80;;;10.40;99.90;;;;;;5041189;28;20188;-85
2023/03/21 07:22:57;;;;;;;76.97;16.67;;;10.50;99.90;;;;;;5033191;28;20185;-85
2023/03/21 07:25:23;;;;;;;78.37;20.00;;;10.50;99.90;;;;;;5040868;28;20656;-86
2023/03/21 07:27:49;;;;;;;76.00;16.20;;;10.40;99.90;;;;;;5039932;28;20962;-86
2023/03/21 07:30:15;;;;;;;79.20;15.30;;;10.40;99.90;;;;;;5040083;28;21028;-86
2023/03/21 07:32:41;;;;;;;80.55;18.48;;;10.40;99.90;;;;;;5037507;28;20470;-86
2023/03/21 07:35:11;;;;;;;80.53;17.42;;;10.40;99.90;;;;;;5039717;28;20161;-86
2023/03/21 07:37:38;;;;;;;82.47;17.88;;;10.50;99.90;;;;;;5037578;28;20161;-86
2023/03/21 07:40:11;;;;;;;77.60;17.60;;;10.50;99.90;;;;;;5033153;28;20226;-86
2023/03/21 07:42:39;;;;;;;74.78;15.38;;;10.50;99.90;;;;;;5039951;28;20212;-86
2023/03/21 07:45:06;;;;;;;79.93;19.77;;;10.50;99.90;;;;;;5040882;28;20161;-86
2023/03/21 07:47:35;;;;;;;76.97;17.25;;;10.50;99.90;;;;;;5037440;28;20181;-86
2023/03/21 07:50:03;;;;;;;77.75;17.98;;;10.40;99.90;;;;;;5032543;28;20185;-86
2023/03/21 07:52:29;;;;;;;75.80;18.20;;;10.40;99.90;;;;;;5038451;28;20192;-86
2023/03/21 07:54:55;;;;;;;81.15;24.02;;;10.30;99.90;;;;;;5032273;28;20263;-87
2023/03/21 07:57:21;;;;;;;83.78;25.08;;;10.30;99.90;;;;;;5040433;28;20166;-87
2023/03/21 07:59:46;;;;;;;83.17;23.37;;;10.30;99.90;;;;;;5040177;28;20173;-87
2023/03/21 08:02:14;;;;;;;76.63;23.70;;;10.30;99.90;;;;;;5040602;28;20185;-87
2023/03/21 08:04:39;;;;;;;79.72;25.77;;;10.30;99.90;;;;;;5040130;28;20219;-87
2023/03/21 08:07:05;;;;;;;79.70;27.10;;;10.30;99.90;;;;;;5040419;28;20181;-87
2023/03/21 08:09:31;;;;;;;84.23;23.70;;;10.20;99.90;;;;;;5039575;28;20193;-86
2023/03/21 08:11:57;;;;;;;81.57;22.80;;;10.30;99.90;;;;;;5031040;28;20180;-86
2023/03/21 08:14:22;;;;;;;88.13;24.93;;;10.20;99.90;;;;;;5037434;28;20204;-86
2023/03/21 08:16:48;;;;;;;83.17;23.33;;;10.30;99.90;;;;;;5042582;28;20157;-86
2023/03/21 08:19:14;;;;;;;85.47;25.93;;;10.20;99.90;;;;;;5041823;28;20491;-87
2023/03/21 08:21:40;;;;;;;86.18;24.55;;;10.10;99.90;;;;;;5042092;28;20195;-87
2023/03/21 08:24:07;;;;;;;81.80;22.37;;;10.10;99.90;;;;;;5034710;28;20185;-87
2023/03/21 08:26:33;;;;;;;78.35;22.30;;;10.10;99.90;;;;;;5041435;28;20226;-86
2023/03/21 08:28:59;;;;;;;79.00;20.13;;;10.10;99.90;;;;;;5040848;28;20260;-87
2023/03/21 08:31:25;;;;;;;88.18;18.63;;;10.10;99.90;;;;;;5036695;28;20407;-86
2023/03/21 08:33:53;;;;;;;88.30;19.37;;;10.20;99.90;;;;;;5041102;28;20533;-87
2023/03/21 08:36:20;;;;;;;81.72;18.90;;;10.20;99.90;;;;;;5023674;28;20510;-87
2023/03/21 08:38:47;;;;;;;82.90;21.35;;;10.20;99.90;;;;;;5041417;28;20169;-87
2023/03/21 08:41:14;;;;;;;83.28;21.42;;;10.30;99.90;;;;;;5034805;28;20583;-87
2023/03/21 08:43:39;;;;;;;80.82;19.63;;;10.30;99.90;;;;;;5039984;28;20192;-86
2023/03/21 08:46:05;;;;;;;76.60;19.43;;;10.20;99.90;;;;;;5034132;28;20718;-87
2023/03/21 08:48:32;;;;;;;79.20;19.35;;;10.20;99.90;;;;;;5040823;28;20181;-86
2023/03/21 08:51:01;;;;;;;78.93;20.45;;;10.20;99.90;;;;;;5033526;28;20648;-87
2023/03/21 08:53:26;;;;;;;76.55;18.73;;;10.20;99.90;;;;;;5039427;28;20200;-86
2023/03/21 08:55:52;;;;;;;76.50;17.53;;;10.20;99.90;;;;;;5040506;28;20528;-87
2023/03/21 08:58:18;;;;;;;78.20;19.40;;;10.20;99.90;;;;;;5035779;28;20252;-87
2023/03/21 09:00:46;;;;;;;75.83;17.17;;;10.20;99.90;;;;;;5039665;28;20165;-86
2023/03/21 09:03:12;;;;;;;85.05;21.08;;;10.30;99.90;;;;;;5035568;28;20187;-87
2023/03/21 09:05:38;;;;;;;82.57;17.90;;;10.40;99.90;;;;;;5040664;28;20184;-86
2023/03/21 09:08:04;;;;;;;81.30;18.80;;;10.30;99.90;;;;;;5048906;28;20946;-86
2023/03/21 09:10:30;;;;;;;79.25;20.83;;;10.30;99.90;;;;;;5040178;28;20435;-86
2023/03/21 09:12:56;;;;;;;76.90;18.35;;;10.30;99.90;;;;;;5040346;28;20192;-86
2023/03/21 09:15:27;;;;;;;78.33;19.83;;;10.30;99.90;;;;;;5035231;28;20173;-87
2023/03/21 09:17:55;;;;;;;81.03;20.45;;;10.30;99.90;;;;;;5032161;28;20400;-86
2023/03/21 09:20:29;;;;;;;79.97;18.67;;;10.30;99.90;;;;;;5039679;28;20169;-86
2023/03/21 09:22:56;;;;;;;83.93;19.83;;;10.30;99.90;;;;;;5038598;28;20274;-86
2023/03/21 09:25:23;;;;;;;76.38;21.45;;;10.40;99.90;;;;;;5037536;28;20165;-86
2023/03/21 09:27:50;;;;;;;80.22;20.02;;;10.50;99.90;;;;;;5028660;28;20169;-86
2023/03/21 09:30:20;;;;;;;84.82;19.92;;;10.60;99.90;;;;;;5037179;28;20185;-86
2023/03/21 09:32:47;;;;;;;80.18;20.92;;;10.70;99.90;;;;;;5035305;28;20644;-86
2023/03/21 09:35:15;;;;;;;77.85;21.88;;;10.80;99.90;;;;;;5036754;28;20192;-86
2023/03/21 09:37:41;;;;;;;85.35;20.65;;;10.80;99.90;;;;;;5034706;28;20707;-86
2023/03/21 09:40:39;;;;;;;76.88;20.52;;;10.70;99.90;;;;;;5030587;28;20628;-86
2023/03/21 09:43:48;;;;;;;81.95;28.00;;;10.80;99.90;;;;;;5041894;28;20208;-86
2023/03/21 09:46:32;;;;;;;78.47;25.23;;;10.70;99.90;;;;;;5037300;28;20628;-86
2023/03/21 09:49:01;;;;;;;78.38;24.13;;;10.60;99.90;;;;;;5029575;28;20576;-86
2023/03/21 09:51:46;;;;;;;85.75;27.25;;;10.60;99.90;;;;;;5036607;28;20192;-86
2023/03/21 09:54:32;;;;;;;79.40;26.25;;;10.50;99.90;;;;;;5030716;28;20261;-86
2023/03/21 09:57:15;;;;;;;78.55;24.10;;;10.50;99.90;;;;;;5036125;28;20165;-86
2023/03/21 09:59:44;;;;;;;81.97;23.77;;;10.50;99.90;;;;;;5036328;28;20180;-86
2023/03/21 10:02:45;;;;;;;80.72;27.48;;;10.50;99.90;;;;;;5032324;28;20200;-86
2023/03/21 10:05:27;;;;;;;81.57;28.10;;;10.40;99.90;;;;;;5036615;28;20200;-86
2023/03/21 10:08:06;;;;;;;80.40;25.55;;;10.50;99.90;;;;;;5029065;28;20569;-86
2023/03/21 10:10:55;;;;;;;78.45;22.83;;;10.50;99.90;;;;;;5036283;28;20172;-86
2023/03/21 10:14:03;;;;;;;80.10;21.95;;;10.40;99.90;;;;;;5032239;28;20231;-86
2023/03/21 10:16:42;;;;;;;76.93;20.13;;;10.40;99.90;;;;;;5035752;28;20172;-86
2023/03/21 10:19:15;;;;;;;80.97;21.50;;;10.40;99.90;;;;;;5037247;28;20679;-86
2023/03/21 10:21:44;;;;;;;77.63;18.77;;;10.40;99.90;;;;;;5036549;28;20237;-86
2023/03/21 10:24:21;;;;;;;77.32;18.00;;;10.30;99.90;;;;;;5036382;28;20193;-86
2023/03/21 10:26:52;;;;;;;82.18;18.20;;;10.40;99.90;;;;;;5037346;28;20172;-86
2023/03/21 10:29:22;;;;;;;78.10;19.27;;;10.40;99.90;;;;;;5036579;28;20224;-86
2023/03/21 10:31:53;;;;;;;79.00;16.23;;;10.50;99.90;;;;;;5035042;28;20138;-86
2023/03/21 10:34:39;;;;;;;73.25;16.65;;;10.50;99.90;;;;;;5031061;28;20688;-86
2023/03/21 10:37:05;;;;;;;74.65;17.38;;;10.60;99.90;;;;;;5035737;28;20179;-86
2023/03/21 10:39:44;;;;;;;75.80;18.43;;;10.60;99.90;;;;;;5035264;28;20229;-86
2023/03/21 10:42:24;;;;;;;79.00;18.63;;;10.70;99.90;;;;;;5035277;28;20428;-86
2023/03/21 10:44:56;;;;;;;74.53;15.90;;;10.80;99.90;;;;;;5035335;28;20228;-86
2023/03/21 10:47:33;;;;;;;78.38;19.58;;;11.00;99.90;;;;;;5035706;28;20181;-86
2023/03/21 10:50:10;;;;;;;77.55;18.70;;;11.10;99.90;;;;;;5028142;28;20279;-86
2023/03/21 10:52:44;;;;;;;80.18;22.10;;;11.30;99.90;;;;;;5034992;28;20250;-86
2023/03/21 10:55:24;;;;;;;80.50;21.90;;;11.40;99.90;;;;;;5036847;28;20565;-86
2023/03/21 10:58:07;;;;;;;78.82;21.83;;;11.40;99.90;;;;;;5026777;28;20180;-86
2023/03/21 11:00:40;;;;;;;82.63;27.70;;;11.40;99.90;;;;;;5035887;28;20638;-86
2023/03/21 11:03:20;;;;;;;81.60;28.35;;;11.30;99.90;;;;;;5036197;28;20189;-86
2023/03/21 11:05:46;;;;;;;85.80;28.95;;;11.20;99.90;;;;;;5035997;28;20177;-86
2023/03/21 11:08:16;;;;;;;85.55;28.45;;;11.20;99.90;;;;;;5031004;28;20176;-85
2023/03/21 11:11:18;;;;;;;83.50;28.65;;;11.20;99.90;;;;;;5034495;28;20628;-86
2023/03/21 11:13:44;;;;;;;81.43;24.20;;;11.20;99.90;;;;;;5030860;28;20295;-86
2023/03/21 11:16:21;;;;;;;85.40;30.00;;;11.30;99.90;;;;;;5035575;28;20185;-86
2023/03/21 11:18:51;;;;;;;79.38;26.70;;;11.20;99.90;;;;;;5026219;28;20654;-86
2023/03/21 11:21:18;;;;;;;82.05;30.42;;;11.20;99.90;;;;;;5035480;28;20680;-86
2023/03/21 11:23:47;;;;;;;82.60;32.17;;;11.20;99.90;;;;;;5035921;28;20529;-86
2023/03/21 11:26:36;;;;;;;82.15;33.08;;;11.20;99.90;;;;;;5029702;28;20169;-86
2023/03/21 11:29:30;;;;;;;85.22;29.73;;;11.10;99.90;;;;;;5030420;28;20205;-86
2023/03/21 11:32:26;;;;;;;83.45;26.85;;;11.00;99.90;;;;;;5027773;28;20161;-86
2023/03/21 11:35:02;;;;;;;83.07;30.70;;;11.00;99.90;;;;;;5035418;28;20153;-86
2023/03/21 11:37:36;;;;;;;78.65;26.67;;;11.00;99.90;;;;;;5035644;28;20676;-86
2023/03/21 11:40:17;;;;;;;79.82;27.38;;;11.00;99.90;;;;;;5037001;28;20160;-86
2023/03/21 11:42:45;;;;;;;79.13;24.20;;;11.00;99.90;;;;;;5035903;28;20188;-85
2023/03/21 11:45:20;;;;;;;78.78;28.00;;;11.00;99.90;;;;;;5032273;28;20169;-86
2023/03/21 11:47:51;;;;;;;79.15;29.42;;;10.80;99.90;;;;;;5101125;23;20357;-84
2023/03/21 11:50:33;;;;;;;81.90;30.60;;;10.80;99.90;;;;;;5040036;28;20189;-84
2023/03/21 11:53:27;;;;;;;83.93;27.90;;;10.70;99.90;;;;;;5025225;28;20195;-84
2023/03/21 11:56:28;;;;;;;80.22;27.17;;;10.70;99.90;;;;;;5025108;28;20165;-84
2023/03/21 11:59:29;;;;;;;79.32;24.27;;;10.70;99.90;;;;;;5024653;28;20182;-84
2023/03/21 12:02:03;;;;;;;77.88;23.83;;;10.80;99.90;;;;;;5043082;28;20149;-84
2023/03/21 12:04:30;;;;;;;80.15;21.67;;;10.80;99.90;;;;;;5042762;28;20241;-84
2023/03/21 12:07:11;;;;;;;83.80;20.90;;;10.70;99.90;;;;;;5043250;28;20693;-84
2023/03/21 12:10:13;;;;;;;77.93;17.73;;;10.80;99.90;;;;;;5042853;28;20173;-84
2023/03/21 12:12:46;;;;;;;78.68;15.85;;;10.70;99.90;;;;;;5043100;28;20194;-84
2023/03/21 12:15:38;;;;;;;80.70;16.70;;;10.60;99.90;;;;;;5042589;28;20156;-84
2023/03/21 12:18:34;;;;;;;78.97;18.75;;;10.60;99.90;;;;;;5042989;28;20158;-85
2023/03/21 12:21:02;;;;;;;81.13;15.60;;;10.60;99.90;;;;;;5042110;28;20201;-84
2023/03/21 12:24:07;;;;;;;74.38;19.48;;;10.70;99.90;;;;;;5043036;28;20181;-84
2023/03/21 12:26:44;;;;;;;77.75;18.60;;;10.80;99.90;;;;;;5008347;28;20203;-84
2023/03/21 12:29:42;;;;;;;82.95;22.05;;;11.00;99.90;;;;;;5041899;28;20185;-85
2023/03/21 12:32:27;;;;;;;76.95;17.63;;;11.00;99.90;;;;;;5008236;28;20576;-84
2023/03/21 12:35:11;;;;;;;75.20;18.73;;;11.10;99.90;;;;;;5042304;28;20494;-84
2023/03/21 12:37:52;;;;;;;76.15;18.63;;;11.20;99.90;;;;;;5041784;28;20161;-84
2023/03/21 12:40:45;;;;;;;77.75;18.90;;;11.20;99.90;;;;;;5042292;28;20558;-84
2023/03/21 12:44:01;;;;;;;78.95;24.08;;;11.30;99.90;;;;;;5041397;28;20193;-84
2023/03/21 12:46:38;;;;;;;78.65;21.25;;;11.30;99.90;;;;;;4980959;28;20193;-84
2023/03/21 12:49:15;;;;;;;78.65;23.50;;;11.40;99.90;;;;;;4981148;28;20273;-84
2023/03/21 12:51:46;;;;;;;82.00;22.13;;;11.40;99.90;;;;;;5022710;28;20187;-84
2023/03/21 12:54:44;;;;;;;79.68;25.23;;;11.40;99.90;;;;;;5042640;28;20243;-84
2023/03/21 12:57:30;;;;;;;78.50;25.95;;;11.50;99.90;;;;;;5033526;28;20185;-84